Time;durP1;ratioP1;P1;durP2;ratioP2;P2;SDS_P1;SDS_P2;PMS_P1;PMS_P2;Temp;Humidity;BMP_temperature;BMP_pressure;BME280_temperature;BME280_humidity;BME280_pressure;Samples;Min_cycle;Max_cycle;Signal;HPM_P1;HPM_P2
2022/04/03 00:00:14;;;;;;;4.35;2.83;;;-1.50;99.90;;;;;;5033979;28;20052;-79
2022/04/03 00:02:39;;;;;;;8.75;2.80;;;-1.50;99.90;;;;;;5033739;28;20132;-79
2022/04/03 00:05:06;;;;;;;5.22;3.03;;;-1.50;99.90;;;;;;5033978;28;20077;-77
2022/04/03 00:07:32;;;;;;;5.97;2.72;;;-1.50;99.90;;;;;;5033915;28;20432;-78
2022/04/03 00:09:59;;;;;;;4.30;2.77;;;-1.50;99.90;;;;;;5033636;28;20496;-77
2022/04/03 00:12:25;;;;;;;3.88;2.42;;;-1.60;99.90;;;;;;5033832;28;20284;-77
2022/04/03 00:14:51;;;;;;;5.65;2.88;;;-1.60;99.90;;;;;;5033533;28;20045;-77
2022/04/03 00:17:16;;;;;;;3.77;2.60;;;-1.50;99.90;;;;;;5033685;28;20477;-77
2022/04/03 00:19:42;;;;;;;5.63;2.50;;;-1.60;99.90;;;;;;5033687;28;20053;-78
2022/04/03 00:22:10;;;;;;;8.32;3.03;;;-1.60;99.90;;;;;;5033708;28;20047;-79
2022/04/03 00:24:36;;;;;;;8.27;3.10;;;-1.60;99.90;;;;;;5033863;28;20050;-78
2022/04/03 00:27:01;;;;;;;4.88;2.70;;;-1.60;99.90;;;;;;5016098;28;20042;-78
2022/04/03 00:29:27;;;;;;;5.65;3.05;;;-1.60;99.90;;;;;;5033376;28;20045;-78
2022/04/03 00:31:53;;;;;;;5.38;2.85;;;-1.70;99.90;;;;;;5033474;28;20477;-78
2022/04/03 00:34:19;;;;;;;5.45;2.70;;;-1.70;99.90;;;;;;5033548;28;20183;-78
2022/04/03 00:36:44;;;;;;;4.05;2.40;;;-1.70;99.90;;;;;;5033589;28;20155;-78
2022/04/03 00:39:10;;;;;;;4.05;2.80;;;-1.80;99.90;;;;;;5037618;28;20132;-78
2022/04/03 00:41:37;;;;;;;6.22;2.67;;;-1.80;99.90;;;;;;5036695;28;20050;-77
2022/04/03 00:44:03;;;;;;;4.97;2.67;;;-1.80;99.90;;;;;;5037542;28;20045;-76
2022/04/03 00:46:32;;;;;;;5.22;2.70;;;-1.80;99.90;;;;;;5037340;28;20469;-79
2022/04/03 00:48:59;;;;;;;5.07;2.72;;;-1.80;99.90;;;;;;5037379;28;20139;-79
2022/04/03 00:51:25;;;;;;;4.30;2.35;;;-1.90;99.90;;;;;;5037568;28;20045;-78
2022/04/03 00:53:51;;;;;;;6.43;2.50;;;-1.90;99.90;;;;;;5020310;28;20045;-79
2022/04/03 00:56:17;;;;;;;4.50;2.53;;;-1.90;99.90;;;;;;5037492;28;20046;-79
2022/04/03 00:58:42;;;;;;;5.53;2.72;;;-1.90;99.90;;;;;;5037121;28;20509;-77
2022/04/03 01:01:08;;;;;;;6.47;2.30;;;-1.90;99.90;;;;;;5037046;28;20474;-79
2022/04/03 01:03:34;;;;;;;4.90;2.50;;;-2.00;99.90;;;;;;5037180;28;20045;-78
2022/04/03 01:05:59;;;;;;;4.35;2.80;;;-2.10;99.90;;;;;;5037104;28;20041;-78
2022/04/03 01:08:26;;;;;;;5.65;2.50;;;-2.10;99.90;;;;;;5003101;28;20053;-78
2022/04/03 01:10:51;;;;;;;9.07;2.60;;;-2.10;99.90;;;;;;5019379;28;20049;-77
2022/04/03 01:13:17;;;;;;;4.85;2.20;;;-2.10;99.90;;;;;;5036930;28;20752;-79
2022/04/03 01:15:59;;;;;;;4.22;2.15;;;-2.10;99.90;;;;;;5036918;28;20560;-77
2022/04/03 01:18:26;;;;;;;3.67;2.42;;;-2.10;99.90;;;;;;5036944;28;20081;-78
2022/04/03 01:20:52;;;;;;;3.67;2.30;;;-2.10;99.90;;;;;;5036848;28;20049;-78
2022/04/03 01:23:19;;;;;;;4.55;2.35;;;-2.20;99.90;;;;;;5036827;28;20053;-79
2022/04/03 01:25:45;;;;;;;5.85;2.45;;;-2.30;99.90;;;;;;5036754;28;20053;-79
2022/04/03 01:28:11;;;;;;;4.70;2.28;;;-2.30;99.90;;;;;;5036585;28;20385;-79
2022/04/03 01:30:37;;;;;;;6.35;3.03;;;-2.30;99.90;;;;;;5036436;28;20057;-79
2022/04/03 01:33:02;;;;;;;9.35;2.30;;;-2.20;99.90;;;;;;5019374;28;20054;-77
2022/04/03 01:35:28;;;;;;;5.10;2.33;;;-2.20;99.90;;;;;;5036635;28;20045;-79
2022/04/03 01:37:54;;;;;;;3.03;2.20;;;-2.30;99.90;;;;;;5036566;28;20038;-78
2022/04/03 01:40:19;;;;;;;4.85;2.40;;;-2.30;99.90;;;;;;5036507;28;20045;-80
2022/04/03 01:42:45;;;;;;;4.13;2.22;;;-2.30;99.90;;;;;;5036486;28;20424;-78
2022/04/03 01:45:10;;;;;;;4.72;2.40;;;-2.40;99.90;;;;;;5036390;28;20043;-78
2022/04/03 01:47:36;;;;;;;4.75;2.70;;;-2.40;99.90;;;;;;5036306;28;20084;-78
2022/04/03 01:50:03;;;;;;;5.22;2.45;;;-2.30;99.90;;;;;;5035337;28;20045;-78
2022/04/03 01:52:29;;;;;;;4.60;2.40;;;-2.40;99.90;;;;;;5036267;28;20104;-79
2022/04/03 01:54:55;;;;;;;4.97;2.47;;;-1.60;99.90;;;;;;5036294;28;20053;-79
2022/04/03 01:57:20;;;;;;;4.55;2.25;;;-2.50;99.90;;;;;;5036065;28;20045;-79
2022/04/03 01:59:46;;;;;;;3.47;2.45;;;-2.60;99.90;;;;;;5035897;28;20045;-79
2022/04/03 02:02:12;;;;;;;4.65;3.35;;;-2.70;99.90;;;;;;5003039;28;20508;-79
2022/04/03 02:04:38;;;;;;;3.13;2.15;;;-2.90;99.90;;;;;;5035991;28;20045;-79
2022/04/03 02:07:03;;;;;;;4.50;2.22;;;-2.90;99.90;;;;;;5035974;28;20409;-78
2022/04/03 02:09:30;;;;;;;4.25;2.38;;;-2.80;99.90;;;;;;5036019;28;20099;-78
2022/04/03 02:11:57;;;;;;;3.72;2.65;;;-2.80;99.90;;;;;;5035942;28;20050;-78
2022/04/03 02:14:24;;;;;;;4.68;2.40;;;-2.70;99.90;;;;;;5035845;28;20049;-79
2022/04/03 02:16:56;;;;;;;5.85;2.40;;;-2.70;99.90;;;;;;5035823;28;20041;-80
2022/04/03 02:19:21;;;;;;;5.07;2.85;;;-2.60;99.90;;;;;;5035829;28;20175;-79
2022/04/03 02:21:47;;;;;;;4.35;2.30;;;-2.60;99.90;;;;;;5035759;28;20081;-79
2022/04/03 02:24:13;;;;;;;5.03;2.70;;;-2.60;99.90;;;;;;5035709;28;20057;-78
2022/04/03 02:26:38;;;;;;;3.83;2.40;;;-2.60;99.90;;;;;;5035636;28;20048;-80
2022/04/03 02:29:04;;;;;;;5.25;2.63;;;-2.60;99.90;;;;;;5017987;28;20041;-78
2022/04/03 02:31:30;;;;;;;6.45;3.17;;;-2.70;99.90;;;;;;5034089;28;20057;-79
2022/04/03 02:33:55;;;;;;;4.10;2.55;;;-2.60;99.90;;;;;;5035717;28;20056;-78
2022/04/03 02:36:21;;;;;;;7.40;2.60;;;-2.60;99.90;;;;;;5017876;28;20076;-77
2022/04/03 02:38:46;;;;;;;4.97;2.60;;;-2.60;99.90;;;;;;5034407;28;20045;-79
2022/04/03 02:41:12;;;;;;;3.97;2.80;;;-2.60;99.90;;;;;;5035406;28;20128;-79
2022/04/03 02:43:38;;;;;;;3.90;2.88;;;-2.60;99.90;;;;;;5035281;28;20531;-79
2022/04/03 02:46:04;;;;;;;5.75;2.70;;;-2.60;99.90;;;;;;5017979;28;20075;-79
2022/04/03 02:48:30;;;;;;;3.80;2.60;;;-2.50;99.90;;;;;;5035281;28;20059;-78
2022/04/03 02:50:56;;;;;;;4.15;2.70;;;-2.50;99.90;;;;;;5017792;28;20136;-79
2022/04/03 02:53:22;;;;;;;4.80;2.80;;;-2.50;99.90;;;;;;5035373;28;20144;-79
2022/04/03 02:55:47;;;;;;;4.20;2.65;;;-2.50;99.90;;;;;;5035298;28;20041;-79
2022/04/03 02:58:13;;;;;;;5.63;2.78;;;-2.50;99.90;;;;;;5035093;28;20042;-78
2022/04/03 03:00:38;;;;;;;4.65;2.67;;;-2.20;99.90;;;;;;5033988;28;20501;-79
2022/04/03 03:03:06;;;;;;;4.93;2.55;;;-2.60;99.90;;;;;;5035571;28;20420;-78
2022/04/03 03:05:32;;;;;;;4.13;2.83;;;-2.60;99.90;;;;;;5035232;28;20095;-78
2022/04/03 03:07:58;;;;;;;5.35;2.60;;;-2.60;99.90;;;;;;5034769;28;20512;-78
2022/04/03 03:10:24;;;;;;;3.67;2.40;;;-2.60;99.90;;;;;;5034831;28;20049;-77
2022/04/03 03:12:50;;;;;;;4.35;2.53;;;-2.60;99.90;;;;;;5034752;28;20085;-77
2022/04/03 03:15:17;;;;;;;4.13;2.67;;;-2.70;99.90;;;;;;5034765;28;20045;-78
2022/04/03 03:17:43;;;;;;;;;;;-2.90;99.90;;;;;;5035087;28;20057;-78
2022/04/03 03:20:10;;;;;;;8.57;2.92;;;-2.80;99.90;;;;;;5034607;28;20364;-78
2022/04/03 03:22:36;;;;;;;4.65;2.80;;;-2.70;99.90;;;;;;5034539;28;20049;-79
2022/04/03 03:25:03;;;;;;;6.35;2.92;;;-2.70;99.90;;;;;;5017125;28;20052;-79
2022/04/03 03:27:29;;;;;;;6.65;2.90;;;-2.60;99.90;;;;;;5034317;28;20052;-79
2022/04/03 03:29:54;;;;;;;5.07;2.97;;;-2.60;99.90;;;;;;5034361;28;20057;-79
2022/04/03 03:32:20;;;;;;;4.05;2.67;;;-2.50;99.90;;;;;;5016818;28;20081;-79
2022/04/03 03:34:45;;;;;;;6.55;3.03;;;-2.40;99.90;;;;;;5034724;28;20049;-80
2022/04/03 03:37:11;;;;;;;7.88;2.97;;;-1.70;99.90;;;;;;5034549;28;20038;-78
2022/04/03 03:39:37;;;;;;;6.28;3.00;;;-2.40;99.90;;;;;;5034093;28;20099;-77
2022/04/03 03:42:02;;;;;;;6.18;3.15;;;-2.30;99.90;;;;;;5034294;28;20417;-79
2022/04/03 03:44:28;;;;;;;4.40;2.90;;;-2.20;99.90;;;;;;5034670;28;20484;-78
2022/04/03 03:46:53;;;;;;;3.95;2.70;;;-2.10;99.90;;;;;;5034494;28;20037;-79
2022/04/03 03:49:19;;;;;;;4.22;2.88;;;-2.10;99.90;;;;;;5034179;28;20053;-79
2022/04/03 03:51:45;;;;;;;3.92;2.78;;;-2.00;99.90;;;;;;5034137;28;20511;-78
2022/04/03 03:54:11;;;;;;;5.47;2.95;;;-2.00;99.90;;;;;;5034096;28;20053;-77
2022/04/03 03:56:36;;;;;;;4.25;3.15;;;-1.70;99.90;;;;;;5016449;28;20048;-78
2022/04/03 03:59:05;;;;;;;5.57;3.03;;;-1.60;99.90;;;;;;5033994;28;20046;-79
2022/04/03 04:01:31;;;;;;;7.20;2.92;;;-1.80;99.90;;;;;;5034431;28;20050;-79
2022/04/03 04:03:56;;;;;;;5.38;3.00;;;-0.80;99.90;;;;;;5033932;28;20041;-78
2022/04/03 04:06:22;;;;;;;3.75;3.00;;;-1.60;99.90;;;;;;5033804;28;20112;-79
2022/04/03 04:08:47;;;;;;;7.85;3.40;;;-1.60;99.90;;;;;;5033817;28;20045;-78
2022/04/03 04:11:13;;;;;;;4.13;2.65;;;-1.50;99.90;;;;;;5033861;28;20080;-77
2022/04/03 04:13:39;;;;;;;5.00;2.80;;;-1.50;99.90;;;;;;5015824;28;20481;-78
2022/04/03 04:16:05;;;;;;;5.18;2.78;;;-1.40;99.90;;;;;;5016193;28;20119;-79
2022/04/03 04:18:31;;;;;;;6.82;3.10;;;-0.70;99.90;;;;;;5034110;28;20092;-79
2022/04/03 04:20:57;;;;;;;8.85;3.15;;;-1.30;99.90;;;;;;5033693;28;20053;-77
2022/04/03 04:23:23;;;;;;;4.00;2.88;;;-1.10;99.90;;;;;;5033726;28;20072;-78
2022/04/03 04:25:48;;;;;;;4.05;2.88;;;-0.30;99.90;;;;;;5032521;28;20048;-79
2022/04/03 04:28:14;;;;;;;4.20;2.90;;;-0.50;99.90;;;;;;5033255;28;20045;-80
2022/04/03 04:30:40;;;;;;;5.50;2.78;;;-1.00;99.90;;;;;;5033489;28;20053;-77
2022/04/03 04:33:06;;;;;;;4.47;3.40;;;-1.00;99.90;;;;;;5033475;28;20477;-78
2022/04/03 04:35:34;;;;;;;7.50;2.90;;;-1.00;99.90;;;;;;5016182;28;20072;-76
2022/04/03 04:37:59;;;;;;;4.97;2.85;;;-0.80;99.90;;;;;;5033532;28;20045;-77
2022/04/03 04:40:25;;;;;;;4.72;2.90;;;-0.90;99.90;;;;;;5033490;28;20049;-77
2022/04/03 04:42:50;;;;;;;6.18;2.95;;;-0.90;99.90;;;;;;5033447;28;20052;-77
2022/04/03 04:45:17;;;;;;;4.65;3.15;;;-0.90;99.90;;;;;;5033538;28;20037;-78
2022/04/03 04:47:42;;;;;;;4.82;3.08;;;-0.60;99.90;;;;;;5033408;28;20041;-76
2022/04/03 04:50:10;;;;;;;4.20;3.00;;;-0.80;99.90;;;;;;5033475;28;20044;-78
2022/04/03 04:52:39;;;;;;;4.38;3.08;;;-0.80;99.90;;;;;;5033405;28;20119;-78
2022/04/03 04:55:06;;;;;;;5.40;3.53;;;-0.80;99.90;;;;;;5033358;28;20108;-78
2022/04/03 04:57:38;;;;;;;4.70;3.60;;;-0.70;99.90;;;;;;5033080;28;20037;-78
2022/04/03 05:00:07;;;;;;;5.40;3.38;;;-0.70;99.90;;;;;;5033410;28;20045;-77
2022/04/03 05:02:33;;;;;;;6.22;2.92;;;-0.60;99.90;;;;;;5033210;28;20068;-76
2022/04/03 05:04:58;;;;;;;4.88;3.15;;;-0.60;99.90;;;;;;5033474;28;20041;-78
2022/04/03 05:07:25;;;;;;;5.32;3.55;;;-0.40;99.90;;;;;;5033170;28;20071;-78
2022/04/03 05:09:52;;;;;;;7.57;3.22;;;-0.50;99.90;;;;;;5033259;28;20085;-81
2022/04/03 05:12:18;;;;;;;5.20;3.30;;;-0.50;99.90;;;;;;5033217;28;20045;-79
2022/04/03 05:14:44;;;;;;;4.95;3.22;;;-0.40;99.90;;;;;;5033238;28;20053;-75
2022/04/03 05:17:10;;;;;;;6.75;3.90;;;-0.40;99.90;;;;;;5032883;28;20431;-75
2022/04/03 05:19:37;;;;;;;7.57;4.30;;;-0.30;99.90;;;;;;5033355;28;20125;-78
2022/04/03 05:22:03;;;;;;;5.30;3.83;;;-0.30;99.90;;;;;;5033168;28;20073;-77
2022/04/03 05:24:28;;;;;;;6.30;3.75;;;-0.20;99.90;;;;;;5034250;28;20041;-76
2022/04/03 05:26:54;;;;;;;6.53;3.83;;;-0.10;99.90;;;;;;5036602;28;20045;-75
2022/04/03 05:29:20;;;;;;;7.25;4.63;;;-0.20;99.90;;;;;;5036753;28;20052;-78
2022/04/03 05:31:46;;;;;;;6.30;3.80;;;-0.20;99.90;;;;;;5036700;28;20064;-76
2022/04/03 05:34:12;;;;;;;5.68;4.07;;;-0.10;99.90;;;;;;5036639;28;20045;-76
2022/04/03 05:36:37;;;;;;;8.70;3.90;;;-0.10;99.90;;;;;;5036136;28;20041;-75
2022/04/03 05:39:04;;;;;;;6.80;4.32;;;-0.10;99.90;;;;;;5036559;28;20049;-75
2022/04/03 05:41:33;;;;;;;7.05;4.03;;;0.00;99.90;;;;;;5036723;28;20103;-77
2022/04/03 05:44:01;;;;;;;5.60;3.65;;;-0.10;99.90;;;;;;5036486;28;20076;-76
2022/04/03 05:46:27;;;;;;;5.82;3.80;;;0.00;99.90;;;;;;5036345;28;20481;-76
2022/04/03 05:48:52;;;;;;;6.80;3.58;;;0.00;99.90;;;;;;5036296;28;20053;-77
2022/04/03 05:51:18;;;;;;;9.60;3.30;;;0.00;99.90;;;;;;5036654;28;20045;-76
2022/04/03 05:53:44;;;;;;;7.72;3.75;;;0.00;99.90;;;;;;5036235;28;20111;-76
2022/04/03 05:56:09;;;;;;;8.05;3.50;;;0.10;99.90;;;;;;5036701;28;20081;-76
2022/04/03 05:58:35;;;;;;;5.32;3.33;;;0.00;99.90;;;;;;5018946;28;20049;-77
2022/04/03 06:01:01;;;;;;;4.75;3.28;;;0.10;99.90;;;;;;5036248;28;20053;-79
2022/04/03 06:03:26;;;;;;;6.95;3.40;;;0.10;99.90;;;;;;5036064;28;20045;-76
2022/04/03 06:05:52;;;;;;;4.78;3.58;;;0.10;99.90;;;;;;5036054;28;20052;-78
2022/04/03 06:08:18;;;;;;;3.90;2.92;;;0.10;99.90;;;;;;5036044;28;20041;-75
2022/04/03 06:10:43;;;;;;;4.57;3.20;;;0.20;99.90;;;;;;5036046;28;20053;-77
2022/04/03 06:13:12;;;;;;;5.80;3.58;;;0.20;99.90;;;;;;5035988;28;20041;-77
2022/04/03 06:15:40;;;;;;;5.32;3.63;;;0.30;99.90;;;;;;5035894;28;20124;-77
2022/04/03 06:18:08;;;;;;;7.63;3.38;;;0.30;99.90;;;;;;5035840;28;20052;-78
2022/04/03 06:20:34;;;;;;;4.63;3.33;;;0.50;99.90;;;;;;5035817;28;20140;-80
2022/04/03 06:22:59;;;;;;;6.45;4.15;;;0.40;99.90;;;;;;5035523;28;20049;-78
2022/04/03 06:25:25;;;;;;;10.20;4.47;;;0.40;99.90;;;;;;5035756;28;20042;-79
2022/04/03 06:27:52;;;;;;;5.82;3.63;;;0.40;99.90;;;;;;5035645;28;20045;-76
2022/04/03 06:30:18;;;;;;;6.82;3.80;;;0.40;99.90;;;;;;5035215;28;20093;-78
2022/04/03 06:32:44;;;;;;;5.90;4.25;;;0.50;99.90;;;;;;5035566;28;20099;-77
2022/04/03 06:35:10;;;;;;;5.85;3.70;;;0.50;99.90;;;;;;5033937;28;20124;-76
2022/04/03 06:37:36;;;;;;;5.35;4.13;;;0.50;99.90;;;;;;5035333;28;20048;-81
2022/04/03 06:40:04;;;;;;;6.05;4.07;;;0.60;99.90;;;;;;5017832;28;20049;-79
2022/04/03 06:42:31;;;;;;;6.53;4.10;;;0.60;99.90;;;;;;5035424;28;20041;-77
2022/04/03 06:45:01;;;;;;;6.95;3.83;;;0.60;99.90;;;;;;5017747;28;20049;-81
2022/04/03 06:47:27;;;;;;;6.60;4.25;;;0.70;99.90;;;;;;5035238;28;20042;-80
2022/04/03 06:49:52;;;;;;;8.52;3.60;;;0.80;99.90;;;;;;5035265;28;20042;-78
2022/04/03 06:52:18;;;;;;;4.75;3.25;;;0.90;99.90;;;;;;5035248;28;20095;-79
2022/04/03 06:54:44;;;;;;;6.32;3.90;;;1.10;99.90;;;;;;5017673;28;20041;-78
2022/04/03 06:57:13;;;;;;;7.32;3.97;;;1.30;99.90;;;;;;5035166;28;20466;-76
2022/04/03 06:59:39;;;;;;;10.10;3.65;;;1.50;99.90;;;;;;5034946;28;20048;-78
2022/04/03 07:02:05;;;;;;;5.88;3.60;;;1.70;99.90;;;;;;5034796;28;20049;-78
2022/04/03 07:04:31;;;;;;;6.57;3.25;;;2.00;99.90;;;;;;5001421;28;20042;-78
2022/04/03 07:06:56;;;;;;;7.22;3.13;;;2.20;99.90;;;;;;5034771;28;20492;-78
2022/04/03 07:09:22;;;;;;;7.07;3.22;;;1.90;99.90;;;;;;5016960;28;20049;-76
2022/04/03 07:11:47;;;;;;;4.22;2.90;;;2.40;99.90;;;;;;5034513;28;20050;-76
2022/04/03 07:14:13;;;;;;;6.88;3.00;;;2.50;99.90;;;;;;5034754;28;20077;-77
2022/04/03 07:16:39;;;;;;;6.00;3.25;;;2.50;99.90;;;;;;5035047;28;20446;-76
2022/04/03 07:19:05;;;;;;;5.75;3.15;;;2.50;99.90;;;;;;5034651;28;20067;-81
2022/04/03 07:21:30;;;;;;;5.68;3.00;;;2.50;99.90;;;;;;5033744;28;20128;-77
2022/04/03 07:23:56;;;;;;;3.83;3.05;;;3.00;99.90;;;;;;5034630;28;20481;-78
2022/04/03 07:26:22;;;;;;;6.20;3.00;;;2.70;99.90;;;;;;5034535;28;20128;-76
2022/04/03 07:28:48;;;;;;;4.20;3.05;;;2.90;99.90;;;;;;5034959;28;20141;-75
2022/04/03 07:31:14;;;;;;;3.57;2.50;;;3.10;99.90;;;;;;5034523;28;20061;-76
2022/04/03 07:33:39;;;;;;;4.13;2.88;;;3.20;99.90;;;;;;5034335;28;20129;-74
2022/04/03 07:36:05;;;;;;;4.38;2.92;;;3.10;99.90;;;;;;5034418;28;20103;-76
2022/04/03 07:38:31;;;;;;;4.57;2.90;;;3.00;99.90;;;;;;5032591;28;20041;-76
2022/04/03 07:40:56;;;;;;;3.95;2.95;;;2.90;99.90;;;;;;5032586;28;20565;-75
2022/04/03 07:43:23;;;;;;;6.47;3.03;;;2.80;99.90;;;;;;5033649;28;20049;-78
2022/04/03 07:45:49;;;;;;;8.80;3.17;;;2.90;99.90;;;;;;5033651;28;20056;-78
2022/04/03 07:48:19;;;;;;;5.47;2.92;;;3.00;99.90;;;;;;5032769;28;20037;-78
2022/04/03 07:50:45;;;;;;;5.03;2.65;;;3.10;99.90;;;;;;5033893;28;20124;-77
2022/04/03 07:53:10;;;;;;;4.90;2.88;;;3.40;99.90;;;;;;5033914;28;20135;-76
2022/04/03 07:55:36;;;;;;;4.88;2.60;;;3.60;99.90;;;;;;5034027;28;20081;-75
2022/04/03 07:58:02;;;;;;;5.20;2.63;;;3.90;99.90;;;;;;5034018;28;20046;-77
2022/04/03 08:00:27;;;;;;;5.55;2.42;;;4.10;99.90;;;;;;5034015;28;20041;-77
2022/04/03 08:02:53;;;;;;;5.43;2.30;;;4.20;99.90;;;;;;5033939;28;20064;-78
2022/04/03 08:05:19;;;;;;;4.32;2.03;;;4.30;99.90;;;;;;5033892;28;20128;-77
2022/04/03 08:07:46;;;;;;;4.50;2.15;;;4.40;99.90;;;;;;5033724;28;20063;-78
2022/04/03 08:10:14;;;;;;;8.50;2.17;;;4.60;99.90;;;;;;5034230;28;20056;-77
2022/04/03 08:12:42;;;;;;;6.35;2.00;;;4.80;99.90;;;;;;5033762;28;20045;-76
2022/04/03 08:15:10;;;;;;;7.18;2.20;;;4.90;99.90;;;;;;5033718;28;20045;-77
2022/04/03 08:17:38;;;;;;;2.45;1.65;;;4.90;99.90;;;;;;5033704;28;20080;-76
2022/04/03 08:20:05;;;;;;;3.65;1.63;;;4.90;99.90;;;;;;5033758;28;20045;-76
2022/04/03 08:22:31;;;;;;;3.75;1.95;;;4.90;99.90;;;;;;5033575;28;20099;-76
2022/04/03 08:24:56;;;;;;;5.18;1.85;;;4.90;99.90;;;;;;5034053;28;20041;-74
2022/04/03 08:27:23;;;;;;;2.72;1.60;;;4.80;99.90;;;;;;5033579;28;20421;-76
2022/04/03 08:29:48;;;;;;;2.80;1.67;;;4.80;99.90;;;;;;5033660;28;20057;-76
2022/04/03 08:32:14;;;;;;;5.82;1.90;;;4.70;99.90;;;;;;5033688;28;20049;-76
2022/04/03 08:34:40;;;;;;;4.30;1.85;;;4.80;99.90;;;;;;5033467;28;20041;-75
2022/04/03 08:37:06;;;;;;;4.43;1.63;;;5.00;99.90;;;;;;5033541;28;20042;-75
2022/04/03 08:39:32;;;;;;;2.17;1.70;;;5.20;99.90;;;;;;5033556;28;20046;-77
2022/04/03 08:41:57;;;;;;;5.85;1.50;;;5.40;99.90;;;;;;5033428;28;20103;-73
2022/04/03 08:44:24;;;;;;;3.13;1.38;;;5.60;99.90;;;;;;5033457;28;20042;-74
2022/04/03 08:46:49;;;;;;;4.47;1.60;;;5.70;99.90;;;;;;5033418;28;20128;-77
2022/04/03 08:49:17;;;;;;;2.95;1.40;;;5.90;99.90;;;;;;5033369;28;20089;-73
2022/04/03 08:51:43;;;;;;;3.08;1.42;;;6.00;99.90;;;;;;5033380;28;20045;-76
2022/04/03 08:54:10;;;;;;;2.58;1.42;;;6.00;99.90;;;;;;5033340;28;20045;-75
2022/04/03 08:56:36;;;;;;;3.40;1.50;;;6.20;99.90;;;;;;5033314;28;20124;-75
2022/04/03 08:59:02;;;;;;;6.70;1.63;;;6.20;99.90;;;;;;5035453;28;20057;-74
2022/04/03 09:01:29;;;;;;;2.85;1.33;;;6.30;99.90;;;;;;5020379;28;20060;-75
2022/04/03 09:03:55;;;;;;;3.42;1.60;;;6.40;99.90;;;;;;5037262;28;20046;-76
2022/04/03 09:06:21;;;;;;;2.22;1.40;;;6.40;99.90;;;;;;5037426;28;20048;-74
2022/04/03 09:08:48;;;;;;;2.30;1.30;;;6.50;99.90;;;;;;5037527;28;20053;-74
2022/04/03 09:11:15;;;;;;;2.80;1.10;;;6.60;99.90;;;;;;5037382;28;20404;-75
2022/04/03 09:13:42;;;;;;;5.47;1.38;;;6.80;99.90;;;;;;5036968;28;20055;-74
2022/04/03 09:16:07;;;;;;;;;;;6.90;99.90;;;;;;5037510;28;20405;-76
2022/04/03 09:18:51;;;;;;;4.95;1.60;;;6.80;99.90;;;;;;5036925;28;20008;-75
2022/04/03 09:21:24;;;;;;;2.88;1.65;;;6.80;99.90;;;;;;5019792;28;20088;-74
2022/04/03 09:24:11;;;;;;;4.15;1.48;;;6.70;99.90;;;;;;5036910;28;20128;-77
2022/04/03 09:26:40;;;;;;;2.72;1.23;;;6.70;99.90;;;;;;5036961;28;20056;-76
2022/04/03 09:29:07;;;;;;;6.75;1.48;;;6.80;99.90;;;;;;5036779;28;20453;-76
2022/04/03 09:31:33;;;;;;;3.13;1.23;;;6.90;99.90;;;;;;5037221;28;20080;-75
2022/04/03 09:34:00;;;;;;;8.43;1.40;;;7.00;99.90;;;;;;5036631;28;20176;-74
2022/04/03 09:36:29;;;;;;;2.47;1.33;;;7.10;99.90;;;;;;5036540;28;20382;-75
2022/04/03 09:39:08;;;;;;;1.70;1.15;;;7.00;99.90;;;;;;5036225;28;20046;-78
2022/04/03 09:41:57;;;;;;;3.50;1.20;;;6.90;99.90;;;;;;5036344;28;20045;-77
2022/04/03 09:44:36;;;;;;;3.25;1.30;;;6.70;99.90;;;;;;5034288;28;20440;-78
2022/04/03 09:47:26;;;;;;;1.80;1.27;;;6.60;99.90;;;;;;5036038;28;20038;-74
2022/04/03 09:50:05;;;;;;;2.92;1.20;;;6.40;99.90;;;;;;5036441;28;20045;-76
2022/04/03 09:52:51;;;;;;;5.07;1.40;;;6.40;99.90;;;;;;5036797;28;20136;-77
2022/04/03 09:55:20;;;;;;;4.05;1.42;;;6.40;99.90;;;;;;5036336;28;20056;-77
2022/04/03 09:58:03;;;;;;;2.70;1.20;;;6.60;99.90;;;;;;5036235;28;20037;-77
2022/04/03 10:00:33;;;;;;;2.15;1.10;;;6.90;99.90;;;;;;5036213;28;20049;-78
2022/04/03 10:03:02;;;;;;;2.80;1.10;;;7.20;99.90;;;;;;5036362;28;20045;-77
2022/04/03 10:05:29;;;;;;;2.83;1.20;;;7.40;99.90;;;;;;5036089;28;20045;-77
2022/04/03 10:08:05;;;;;;;4.93;1.15;;;7.80;99.90;;;;;;5035974;28;20497;-76
2022/04/03 10:10:35;;;;;;;2.80;1.30;;;7.60;99.90;;;;;;5035241;28;20045;-75
2022/04/03 10:13:02;;;;;;;6.10;1.20;;;7.30;99.90;;;;;;5035949;28;20052;-75
2022/04/03 10:15:28;;;;;;;6.65;1.80;;;7.10;99.90;;;;;;5035927;28;20048;-77
2022/04/03 10:17:55;;;;;;;2.58;1.52;;;7.00;99.90;;;;;;5035867;28;20095;-77
2022/04/03 10:20:25;;;;;;;1.77;1.17;;;6.80;99.90;;;;;;5035866;28;20136;-74
2022/04/03 10:22:58;;;;;;;2.60;1.10;;;6.80;99.90;;;;;;5035818;28;20119;-75
2022/04/03 10:25:31;;;;;;;3.97;1.50;;;7.00;99.90;;;;;;5035730;28;20045;-75
2022/04/03 10:28:01;;;;;;;5.18;1.10;;;7.10;99.90;;;;;;5036137;28;20049;-76
2022/04/03 10:30:44;;;;;;;5.53;1.10;;;7.30;99.90;;;;;;5035597;28;20123;-76
2022/04/03 10:33:20;;;;;;;1.10;0.93;;;7.70;99.90;;;;;;5035901;28;20128;-75
2022/04/03 10:36:02;;;;;;;3.45;0.90;;;8.00;99.90;;;;;;5035569;28;20046;-77
2022/04/03 10:38:35;;;;;;;3.55;1.00;;;8.20;99.90;;;;;;5035922;28;20480;-78
2022/04/03 10:41:01;;;;;;;2.20;0.90;;;8.50;99.90;;;;;;5035405;28;20049;-74
2022/04/03 10:43:31;;;;;;;3.38;0.90;;;8.70;99.90;;;;;;5035736;28;20041;-76
2022/04/03 10:45:57;;;;;;;1.80;0.80;;;8.90;99.90;;;;;;5035546;28;20441;-74
2022/04/03 10:48:25;;;;;;;2.20;0.80;;;9.10;99.90;;;;;;5035267;28;20037;-78
2022/04/03 10:51:10;;;;;;;2.97;1.00;;;9.10;99.90;;;;;;5035141;28;20492;-75
2022/04/03 10:53:42;;;;;;;1.23;0.80;;;9.30;99.90;;;;;;5035232;28;20041;-76
2022/04/03 10:56:20;;;;;;;1.60;0.90;;;9.30;99.90;;;;;;5035452;28;20049;-78
2022/04/03 10:58:50;;;;;;;3.13;0.80;;;9.50;99.90;;;;;;5035182;28;20045;-76
2022/04/03 11:01:31;;;;;;;2.47;1.00;;;8.90;99.90;;;;;;5034971;28;20049;-78
2022/04/03 11:04:01;;;;;;;2.85;1.10;;;8.70;99.90;;;;;;5035140;28;20478;-78
2022/04/03 11:06:32;;;;;;;2.28;1.23;;;8.40;99.90;;;;;;5034834;28;20052;-74
2022/04/03 11:09:05;;;;;;;2.97;1.25;;;7.90;99.90;;;;;;5035086;28;20065;-75
2022/04/03 11:11:36;;;;;;;2.15;0.93;;;7.80;99.90;;;;;;5034913;28;20053;-76
2022/04/03 11:14:02;;;;;;;1.73;0.95;;;7.70;99.90;;;;;;5035816;28;20045;-74
2022/04/03 11:16:28;;;;;;;3.42;1.25;;;7.70;99.90;;;;;;5034788;28;20041;-77
2022/04/03 11:18:54;;;;;;;2.33;1.00;;;7.70;99.90;;;;;;5034720;28;20045;-77
2022/04/03 11:21:22;;;;;;;1.48;0.93;;;7.80;99.90;;;;;;5034821;28;20052;-76
2022/04/03 11:24:20;;;;;;;2.97;1.00;;;7.80;99.90;;;;;;5034739;28;20045;-74
2022/04/03 11:26:46;;;;;;;1.83;0.93;;;8.00;99.90;;;;;;4984687;28;20054;-75
2022/04/03 11:29:12;;;;;;;2.50;1.13;;;8.00;99.90;;;;;;5034896;28;20056;-75
2022/04/03 11:31:38;;;;;;;1.93;1.10;;;8.00;99.90;;;;;;5034706;28;20060;-77
2022/04/03 11:34:06;;;;;;;2.07;1.17;;;8.00;99.90;;;;;;5034431;28;20048;-76
2022/04/03 11:36:32;;;;;;;4.00;1.05;;;7.90;99.90;;;;;;5034422;28;20072;-76
2022/04/03 11:39:00;;;;;;;2.53;1.15;;;7.80;99.90;;;;;;5034474;28;20100;-77
2022/04/03 11:41:36;;;;;;;1.90;1.00;;;7.70;99.90;;;;;;5034337;28;20091;-77
2022/04/03 11:44:15;;;;;;;3.33;1.13;;;7.70;99.90;;;;;;5034554;28;20049;-77
2022/04/03 11:46:42;;;;;;;4.75;1.55;;;7.60;99.90;;;;;;5034304;28;20041;-75
2022/04/03 11:49:16;;;;;;;3.80;1.30;;;7.60;99.90;;;;;;5034222;28;20047;-77
2022/04/03 11:51:44;;;;;;;4.22;1.30;;;7.60;99.90;;;;;;5034086;28;20045;-76
2022/04/03 11:54:10;;;;;;;1.42;0.95;;;7.60;99.90;;;;;;5034145;28;20049;-78
2022/04/03 11:56:37;;;;;;;2.83;0.90;;;7.60;99.90;;;;;;5034312;28;20103;-78
2022/04/03 11:59:05;;;;;;;5.18;2.35;;;7.70;99.90;;;;;;5034206;28;20083;-78
2022/04/03 12:01:35;;;;;;;3.90;1.73;;;8.10;99.90;;;;;;5033947;28;20049;-76
2022/04/03 12:04:08;;;;;;;1.13;0.82;;;8.40;99.90;;;;;;5033925;28;20041;-78
2022/04/03 12:06:35;;;;;;;0.98;0.80;;;8.70;99.90;;;;;;5034437;28;20083;-77
2022/04/03 12:09:04;;;;;;;3.70;1.70;;;9.10;99.90;;;;;;5033903;28;20053;-77
2022/04/03 12:11:30;;;;;;;1.10;0.80;;;9.40;99.90;;;;;;5016510;28;20136;-76
2022/04/03 12:13:58;;;;;;;2.33;0.80;;;9.60;99.90;;;;;;5033794;28;20124;-75
2022/04/03 12:16:25;;;;;;;2.88;0.90;;;9.70;99.90;;;;;;5033684;28;20508;-79
2022/04/03 12:18:59;;;;;;;1.35;0.80;;;9.60;99.90;;;;;;5034231;28;20041;-74
2022/04/03 12:21:42;;;;;;;1.40;0.80;;;9.40;99.90;;;;;;5033770;28;20053;-77
2022/04/03 12:24:09;;;;;;;1.92;1.02;;;9.10;99.90;;;;;;5033971;28;20128;-77
2022/04/03 12:26:37;;;;;;;2.08;0.90;;;8.80;99.90;;;;;;5033651;28;20497;-77
2022/04/03 12:29:05;;;;;;;2.47;1.20;;;8.70;99.90;;;;;;5033599;28;20089;-76
2022/04/03 12:31:32;;;;;;;2.50;1.13;;;8.50;99.90;;;;;;5034064;28;20096;-78
2022/04/03 12:34:15;;;;;;;1.90;0.93;;;8.30;99.90;;;;;;5020437;28;20052;-77
2022/04/03 12:36:52;;;;;;;2.95;1.50;;;8.10;99.90;;;;;;5040219;28;20164;-76
2022/04/03 12:39:43;;;;;;;4.47;1.15;;;8.00;99.90;;;;;;5039708;28;20560;-77
2022/04/03 12:42:09;;;;;;;3.35;1.17;;;7.90;99.90;;;;;;5040042;28;20045;-76
2022/04/03 12:44:42;;;;;;;2.83;1.00;;;7.90;99.90;;;;;;5039951;28;20099;-77
2022/04/03 12:47:12;;;;;;;2.42;0.90;;;8.00;99.90;;;;;;5040000;28;20049;-76
2022/04/03 12:49:40;;;;;;;3.67;1.17;;;8.00;99.90;;;;;;5040081;28;20133;-75
2022/04/03 12:52:06;;;;;;;2.72;1.10;;;8.10;99.90;;;;;;5039972;28;20450;-76
2022/04/03 12:54:43;;;;;;;1.70;0.90;;;8.10;99.90;;;;;;5039986;28;20107;-76